Time;durP1;ratioP1;P1;durP2;ratioP2;P2;SDS_P1;SDS_P2;PMS_P1;PMS_P2;Temp;Humidity;BMP_temperature;BMP_pressure;BME280_temperature;BME280_humidity;BME280_pressure;Samples;Min_cycle;Max_cycle;Signal;HPM_P1;HPM_P2
2021/11/03 00:01:05;;;;;;;2.25;1.77;;;10.10;99.00;;;;;;5020884;28;20040;-81
2021/11/03 00:03:33;;;;;;;2.58;1.55;;;10.00;99.00;;;;;;5032131;28;20033;-81
2021/11/03 00:05:58;;;;;;;3.03;1.70;;;10.00;99.10;;;;;;5030547;28;20505;-81
2021/11/03 00:08:27;;;;;;;2.45;2.25;;;9.90;99.10;;;;;;5026831;28;20037;-80
2021/11/03 00:10:53;;;;;;;2.10;1.90;;;9.90;99.20;;;;;;5027440;28;20045;-81
2021/11/03 00:13:22;;;;;;;2.92;2.00;;;9.90;99.40;;;;;;5019658;28;20045;-81
2021/11/03 00:15:48;;;;;;;2.17;1.67;;;9.80;99.40;;;;;;5018874;28;20025;-81
2021/11/03 00:18:14;;;;;;;2.08;1.88;;;9.80;99.50;;;;;;5045402;28;20040;-80
2021/11/03 00:20:40;;;;;;;2.45;2.17;;;9.80;99.50;;;;;;5030950;28;20021;-80
2021/11/03 00:23:06;;;;;;;2.38;1.77;;;9.80;99.50;;;;;;5030766;28;20061;-80
2021/11/03 00:25:31;;;;;;;4.43;2.10;;;9.80;99.50;;;;;;5021318;28;20033;-80
2021/11/03 00:27:57;;;;;;;1.88;1.65;;;9.70;99.50;;;;;;5023801;28;20026;-80
2021/11/03 00:30:23;;;;;;;2.92;2.10;;;9.70;99.50;;;;;;5025755;28;20041;-80
2021/11/03 00:32:48;;;;;;;2.40;2.10;;;9.70;99.50;;;;;;5029477;28;20029;-80
2021/11/03 00:35:15;;;;;;;2.63;2.03;;;9.60;99.40;;;;;;5026482;28;20054;-80
2021/11/03 00:37:40;;;;;;;2.80;2.50;;;9.60;99.30;;;;;;5019877;28;20051;-81
2021/11/03 00:40:07;;;;;;;3.58;1.80;;;9.50;99.50;;;;;;5027283;28;20480;-81
2021/11/03 00:42:33;;;;;;;2.10;1.85;;;9.50;99.60;;;;;;5029242;28;20065;-81
2021/11/03 00:44:59;;;;;;;3.28;1.90;;;9.40;99.60;;;;;;5029576;28;20032;-80
2021/11/03 00:47:25;;;;;;;2.20;1.83;;;9.30;99.80;;;;;;5028866;28;20043;-81
2021/11/03 00:49:51;;;;;;;3.95;1.95;;;9.30;99.70;;;;;;5024746;28;20068;-81
2021/11/03 00:52:16;;;;;;;2.78;2.17;;;9.30;99.70;;;;;;5029490;28;20029;-81
2021/11/03 00:54:42;;;;;;;3.75;2.60;;;9.30;99.70;;;;;;5031226;28;20029;-81
2021/11/03 00:57:07;;;;;;;3.53;2.50;;;9.20;99.70;;;;;;5025872;28;20417;-81
2021/11/03 00:59:33;;;;;;;3.90;1.98;;;9.20;99.90;;;;;;5029552;28;20037;-81
2021/11/03 01:01:58;;;;;;;3.65;2.22;;;9.20;99.90;;;;;;5030394;28;20625;-81
2021/11/03 01:04:24;;;;;;;2.97;2.28;;;9.10;99.90;;;;;;5045995;28;20025;-81
2021/11/03 01:06:51;;;;;;;3.83;2.40;;;9.10;99.90;;;;;;5025320;28;20034;-81
2021/11/03 01:09:16;;;;;;;3.05;2.40;;;9.10;99.90;;;;;;5027492;28;20155;-80
2021/11/03 01:11:42;;;;;;;3.65;2.20;;;9.00;99.90;;;;;;5026732;28;20113;-82
2021/11/03 01:14:08;;;;;;;2.47;2.10;;;9.00;99.90;;;;;;5030527;28;20480;-80
2021/11/03 01:16:34;;;;;;;3.42;2.53;;;9.00;99.90;;;;;;5043706;28;20034;-81
2021/11/03 01:19:00;;;;;;;3.00;2.22;;;9.00;99.90;;;;;;5028835;28;20041;-81
2021/11/03 01:21:26;;;;;;;2.47;2.25;;;8.90;99.90;;;;;;5025483;28;20387;-79
2021/11/03 01:23:52;;;;;;;2.85;2.25;;;8.90;99.90;;;;;;5022682;28;20040;-79
2021/11/03 01:26:18;;;;;;;4.25;2.40;;;8.90;99.90;;;;;;5023009;28;20140;-79
2021/11/03 01:28:44;;;;;;;3.40;2.80;;;8.90;99.90;;;;;;5027973;28;20072;-81
2021/11/03 01:31:10;;;;;;;3.20;2.08;;;8.80;99.90;;;;;;5036189;28;20087;-79
2021/11/03 01:33:36;;;;;;;3.95;2.17;;;8.80;99.90;;;;;;5030197;28;20103;-80
2021/11/03 01:36:01;;;;;;;4.38;2.40;;;8.80;99.90;;;;;;5029647;28;20068;-79
2021/11/03 01:38:27;;;;;;;2.97;2.67;;;8.80;99.90;;;;;;5028100;28;20033;-79
2021/11/03 01:40:52;;;;;;;2.97;2.30;;;8.80;99.90;;;;;;5044118;28;20072;-80
2021/11/03 01:43:49;;;;;;;3.95;2.50;;;8.80;99.90;;;;;;5027256;28;20033;-79
2021/11/03 01:46:28;;;;;;;3.70;2.20;;;8.80;99.90;;;;;;5029683;28;20406;-78
2021/11/03 01:49:11;;;;;;;2.63;2.25;;;8.90;99.90;;;;;;5010795;28;20502;-79
2021/11/03 01:51:42;;;;;;;2.40;2.20;;;8.90;99.90;;;;;;5029045;28;20033;-79
2021/11/03 01:54:12;;;;;;;4.53;2.13;;;9.00;99.90;;;;;;5027808;28;20041;-79
2021/11/03 01:56:39;;;;;;;3.58;2.33;;;9.00;99.90;;;;;;5025439;28;20113;-80
2021/11/03 01:59:28;;;;;;;3.15;2.00;;;9.10;99.90;;;;;;5026808;28;20032;-79
2021/11/03 02:01:53;;;;;;;4.03;1.77;;;9.10;99.90;;;;;;5010987;28;20114;-79
2021/11/03 02:04:20;;;;;;;2.63;2.10;;;9.10;99.90;;;;;;5024267;28;20117;-79
2021/11/03 02:06:47;;;;;;;2.50;1.95;;;9.20;99.90;;;;;;5021973;28;20025;-80
2021/11/03 02:09:13;;;;;;;1.95;1.77;;;9.20;99.90;;;;;;5026987;28;20022;-80
2021/11/03 02:11:38;;;;;;;2.83;1.75;;;9.20;99.90;;;;;;5038233;28;20033;-80
2021/11/03 02:14:06;;;;;;;2.20;1.80;;;9.20;99.90;;;;;;5028812;28;20167;-80
2021/11/03 02:16:34;;;;;;;1.80;1.70;;;9.10;99.90;;;;;;5029599;28;20030;-80
2021/11/03 02:19:03;;;;;;;2.08;1.85;;;9.10;99.90;;;;;;5028489;28;20458;-79
2021/11/03 02:21:41;;;;;;;1.88;1.55;;;9.10;99.90;;;;;;5025891;28;20563;-79
2021/11/03 02:24:15;;;;;;;2.50;2.00;;;9.10;99.90;;;;;;5028820;28;20036;-79
2021/11/03 02:26:45;;;;;;;2.38;1.67;;;9.10;99.90;;;;;;5022246;28;20037;-79
2021/11/03 02:29:12;;;;;;;1.73;1.40;;;9.10;99.90;;;;;;5026846;28;20109;-79
2021/11/03 02:31:46;;;;;;;4.63;1.75;;;9.00;99.90;;;;;;5014112;28;20029;-80
2021/11/03 02:34:20;;;;;;;1.70;1.20;;;9.00;99.90;;;;;;5024928;28;20048;-79
2021/11/03 02:36:59;;;;;;;1.88;1.42;;;9.00;99.90;;;;;;5028826;28;20044;-79
2021/11/03 02:39:58;;;;;;;2.05;1.30;;;9.00;99.90;;;;;;5042154;28;20025;-80
2021/11/03 02:42:28;;;;;;;2.15;1.52;;;9.10;99.90;;;;;;5023544;28;20034;-79
2021/11/03 02:44:56;;;;;;;2.53;1.50;;;9.00;99.90;;;;;;5009588;28;20080;-79
2021/11/03 02:47:21;;;;;;;1.30;1.17;;;9.00;99.90;;;;;;5025831;28;20113;-79
2021/11/03 02:49:47;;;;;;;3.85;1.58;;;9.00;99.90;;;;;;5023875;28;20109;-79
2021/11/03 02:52:13;;;;;;;2.13;1.58;;;9.10;99.70;;;;;;5027173;28;20041;-79
2021/11/03 02:54:39;;;;;;;1.60;1.50;;;9.10;99.50;;;;;;5028337;28;20098;-79
2021/11/03 02:57:07;;;;;;;1.88;1.20;;;9.00;99.40;;;;;;5026211;28;20191;-79
2021/11/03 02:59:33;;;;;;;4.50;1.40;;;9.00;99.30;;;;;;5026584;28;20153;-80
2021/11/03 03:02:00;;;;;;;1.65;1.50;;;9.00;99.30;;;;;;5024770;28;20125;-79
2021/11/03 03:04:35;;;;;;;2.22;1.70;;;9.00;99.10;;;;;;5012534;28;20033;-79
2021/11/03 03:07:01;;;;;;;2.20;1.73;;;9.00;99.10;;;;;;5027591;28;20060;-80
2021/11/03 03:09:28;;;;;;;2.35;1.45;;;8.90;99.20;;;;;;5027364;28;20046;-81
2021/11/03 03:11:57;;;;;;;1.88;1.30;;;8.90;99.20;;;;;;5015587;28;20041;-79
2021/11/03 03:14:25;;;;;;;2.95;1.55;;;8.90;99.20;;;;;;5010360;28;20033;-79
2021/11/03 03:16:51;;;;;;;2.35;1.30;;;8.90;99.30;;;;;;5024953;28;20041;-79
2021/11/03 03:19:17;;;;;;;1.85;1.40;;;8.90;99.30;;;;;;5019004;28;20030;-78
2021/11/03 03:21:43;;;;;;;2.15;1.50;;;8.90;99.30;;;;;;5024155;28;20036;-79
2021/11/03 03:24:10;;;;;;;1.70;1.27;;;8.80;99.30;;;;;;5031012;28;20386;-79
2021/11/03 03:26:37;;;;;;;3.22;1.38;;;8.80;99.30;;;;;;5031861;28;20428;-78
2021/11/03 03:29:04;;;;;;;2.40;1.50;;;8.80;99.20;;;;;;5029428;28;20032;-79
2021/11/03 03:31:30;;;;;;;1.38;1.15;;;8.90;99.10;;;;;;5025822;28;20030;-79
2021/11/03 03:33:58;;;;;;;1.27;1.17;;;8.80;99.00;;;;;;5032475;28;20042;-79
2021/11/03 03:36:24;;;;;;;1.27;1.00;;;8.90;98.90;;;;;;5031927;28;20026;-79
2021/11/03 03:38:51;;;;;;;1.67;1.30;;;8.90;98.80;;;;;;5031774;28;20466;-79
2021/11/03 03:41:18;;;;;;;3.20;1.65;;;8.80;98.70;;;;;;5025366;28;20037;-80
2021/11/03 03:43:44;;;;;;;2.15;1.40;;;8.80;98.70;;;;;;5032086;28;20033;-80
2021/11/03 03:46:10;;;;;;;2.10;1.83;;;8.70;98.60;;;;;;5014323;28;20532;-79
2021/11/03 03:48:37;;;;;;;2.75;1.70;;;8.70;98.60;;;;;;5011521;28;20088;-79
2021/11/03 03:51:03;;;;;;;1.90;1.45;;;8.70;98.60;;;;;;5018202;28;20574;-79
2021/11/03 03:53:28;;;;;;;1.90;1.80;;;8.60;98.50;;;;;;5010727;28;20049;-79
2021/11/03 03:55:54;;;;;;;1.50;1.40;;;8.60;98.60;;;;;;5020838;28;20414;-80
2021/11/03 03:58:20;;;;;;;1.88;1.70;;;8.50;98.50;;;;;;5013109;28;20100;-79
2021/11/03 04:00:48;;;;;;;1.80;1.40;;;8.50;98.60;;;;;;5022351;28;20033;-79
2021/11/03 04:03:14;;;;;;;2.17;1.52;;;8.40;98.70;;;;;;5019652;28;20085;-79
2021/11/03 04:05:43;;;;;;;3.15;2.10;;;8.30;98.80;;;;;;5012421;28;20057;-79
2021/11/03 04:08:09;;;;;;;2.08;1.73;;;8.30;98.90;;;;;;5011137;28;20084;-79
2021/11/03 04:10:35;;;;;;;3.58;1.98;;;8.20;99.00;;;;;;5017951;28;20033;-80
2021/11/03 04:13:00;;;;;;;2.47;1.95;;;8.20;99.00;;;;;;5028693;28;20457;-79
2021/11/03 04:15:26;;;;;;;1.88;1.58;;;8.20;99.00;;;;;;5032368;28;20033;-80
2021/11/03 04:17:52;;;;;;;2.45;1.77;;;8.10;99.10;;;;;;5046424;28;20367;-80
2021/11/03 04:20:17;;;;;;;2.30;2.10;;;8.10;99.10;;;;;;5024250;28;20030;-80
2021/11/03 04:22:43;;;;;;;2.30;2.10;;;8.00;99.20;;;;;;5029645;28;20091;-80
2021/11/03 04:25:09;;;;;;;1.52;1.42;;;8.00;99.20;;;;;;5030486;28;20061;-80
2021/11/03 04:27:35;;;;;;;2.83;2.47;;;8.00;99.30;;;;;;5026152;28;20048;-80
2021/11/03 04:30:01;;;;;;;2.08;1.88;;;7.90;99.30;;;;;;5022914;28;20052;-80
2021/11/03 04:32:27;;;;;;;2.88;2.35;;;7.90;99.40;;;;;;5025960;28;20033;-80
2021/11/03 04:34:53;;;;;;;3.17;2.45;;;7.80;99.50;;;;;;5029464;28;20029;-79
2021/11/03 04:37:19;;;;;;;2.45;2.17;;;7.80;99.60;;;;;;5025295;28;20413;-79
2021/11/03 04:39:45;;;;;;;3.90;2.63;;;7.80;99.80;;;;;;5026450;28;20104;-79
2021/11/03 04:42:10;;;;;;;4.35;2.50;;;7.80;99.90;;;;;;5018569;28;20498;-79
2021/11/03 04:44:36;;;;;;;2.40;2.20;;;7.80;99.90;;;;;;5028750;28;20045;-79
2021/11/03 04:47:03;;;;;;;2.85;2.35;;;7.80;99.90;;;;;;5031245;28;20029;-79
2021/11/03 04:49:29;;;;;;;2.80;2.17;;;7.80;99.90;;;;;;5027709;28;20660;-79
2021/11/03 04:51:54;;;;;;;2.42;2.17;;;7.80;99.90;;;;;;5026752;28;20104;-79
2021/11/03 04:54:20;;;;;;;2.88;2.30;;;7.80;99.90;;;;;;5030384;28;20095;-81
2021/11/03 04:56:45;;;;;;;2.80;2.20;;;7.90;99.90;;;;;;5029191;28;20056;-81
2021/11/03 04:59:11;;;;;;;4.07;2.95;;;7.90;99.90;;;;;;5019103;28;20119;-81
2021/11/03 05:01:37;;;;;;;5.40;2.70;;;7.90;99.90;;;;;;5026026;28;20037;-82
2021/11/03 05:04:03;;;;;;;3.50;2.78;;;8.00;99.90;;;;;;5029650;28;20045;-81
2021/11/03 05:06:30;;;;;;;3.20;2.30;;;8.00;99.90;;;;;;5027305;28;20033;-79
2021/11/03 05:08:57;;;;;;;3.60;2.60;;;8.00;99.90;;;;;;5024242;28;20036;-81
2021/11/03 05:11:23;;;;;;;2.65;2.20;;;8.10;99.90;;;;;;5030378;28;20037;-81
2021/11/03 05:13:48;;;;;;;4.50;2.50;;;8.10;99.90;;;;;;5030221;28;20454;-81
2021/11/03 05:16:18;;;;;;;3.38;2.78;;;8.20;99.90;;;;;;5025317;28;20040;-81
2021/11/03 05:18:43;;;;;;;5.32;2.72;;;8.20;99.90;;;;;;5027277;28;20033;-80
2021/11/03 05:21:09;;;;;;;3.95;3.10;;;8.30;99.90;;;;;;5023806;28;20375;-81
2021/11/03 05:23:34;;;;;;;2.92;2.63;;;8.30;99.90;;;;;;5029884;28;20095;-81
2021/11/03 05:26:00;;;;;;;3.08;2.78;;;8.30;99.90;;;;;;5028059;28;20060;-81
2021/11/03 05:28:26;;;;;;;3.22;2.25;;;8.40;99.90;;;;;;5025294;28;20037;-81
2021/11/03 05:30:52;;;;;;;3.33;3.03;;;8.40;99.90;;;;;;5017270;28;20597;-81
2021/11/03 05:33:17;;;;;;;2.53;2.33;;;8.50;99.90;;;;;;5025259;28;20033;-79
2021/11/03 05:35:46;;;;;;;4.75;2.67;;;8.60;99.90;;;;;;5025206;28;20086;-80
2021/11/03 05:38:11;;;;;;;3.38;2.45;;;8.60;99.90;;;;;;5020235;28;20056;-81
2021/11/03 05:40:37;;;;;;;3.92;2.63;;;8.70;99.90;;;;;;5025741;28;20052;-81
2021/11/03 05:43:02;;;;;;;4.38;2.30;;;8.70;99.90;;;;;;5024645;28;20068;-81
2021/11/03 05:45:29;;;;;;;2.97;2.67;;;8.80;99.90;;;;;;5038589;28;20033;-81
2021/11/03 05:47:55;;;;;;;2.83;2.28;;;8.90;99.70;;;;;;5023359;28;20497;-81
2021/11/03 05:50:27;;;;;;;3.47;2.85;;;8.90;99.60;;;;;;5018478;28;20029;-81
2021/11/03 05:52:52;;;;;;;6.40;3.17;;;8.90;99.50;;;;;;5010508;28;20393;-81
2021/11/03 05:55:19;;;;;;;3.13;2.50;;;9.00;99.30;;;;;;5014846;28;20108;-80
2021/11/03 05:57:45;;;;;;;3.10;2.60;;;9.00;99.20;;;;;;5025693;28;20041;-82
2021/11/03 06:00:16;;;;;;;3.28;2.22;;;9.00;99.10;;;;;;5021828;28;20113;-81
2021/11/03 06:02:43;;;;;;;6.03;2.90;;;9.10;98.90;;;;;;5019369;28;20029;-81
2021/11/03 06:05:10;;;;;;;4.38;3.45;;;9.10;98.80;;;;;;5029017;28;20076;-81
2021/11/03 06:07:36;;;;;;;5.35;4.00;;;9.10;98.80;;;;;;5028176;28;20060;-81
2021/11/03 06:10:04;;;;;;;3.88;2.97;;;9.10;98.80;;;;;;5023824;28;20578;-81
2021/11/03 06:12:30;;;;;;;3.78;2.95;;;9.20;98.60;;;;;;5038050;28;20148;-81
2021/11/03 06:14:56;;;;;;;3.58;2.53;;;9.20;98.60;;;;;;5030426;28;20034;-82
2021/11/03 06:17:21;;;;;;;3.00;2.70;;;9.20;98.60;;;;;;5017885;28;20022;-80
2021/11/03 06:19:48;;;;;;;2.97;2.60;;;9.20;98.60;;;;;;5031717;28;20527;-81
2021/11/03 06:22:13;;;;;;;3.58;3.05;;;9.20;98.50;;;;;;5026938;28;20042;-82
2021/11/03 06:24:42;;;;;;;3.47;3.17;;;9.20;98.50;;;;;;5024173;28;20514;-80
2021/11/03 06:27:08;;;;;;;5.82;3.30;;;9.20;98.60;;;;;;5023887;28;20494;-81
2021/11/03 06:29:34;;;;;;;4.10;3.00;;;9.20;98.40;;;;;;5018615;28;20065;-81
2021/11/03 06:31:59;;;;;;;5.93;3.60;;;9.20;98.40;;;;;;5027491;28;20036;-81
2021/11/03 06:34:24;;;;;;;4.05;3.20;;;9.30;98.50;;;;;;5017363;28;20041;-81
2021/11/03 06:36:50;;;;;;;4.40;3.08;;;9.30;98.40;;;;;;5028507;28;20038;-81
2021/11/03 06:39:16;;;;;;;4.07;3.30;;;9.30;98.30;;;;;;5030121;28;20037;-81
2021/11/03 06:41:44;;;;;;;5.47;3.50;;;9.40;98.20;;;;;;5031594;28;20528;-79
2021/11/03 06:44:10;;;;;;;5.07;3.80;;;9.40;98.20;;;;;;5028459;28;20029;-80
2021/11/03 06:46:36;;;;;;;4.93;3.38;;;9.40;98.10;;;;;;5027864;28;20404;-81
2021/11/03 06:49:02;;;;;;;3.47;2.95;;;9.40;98.10;;;;;;5029761;28;20062;-80
2021/11/03 06:51:28;;;;;;;4.50;3.75;;;9.50;98.10;;;;;;5031419;28;20505;-80
2021/11/03 06:53:53;;;;;;;4.22;2.83;;;9.50;98.10;;;;;;5016007;28;20033;-80
2021/11/03 06:56:19;;;;;;;3.40;3.10;;;9.40;98.10;;;;;;5023685;28;20034;-80
2021/11/03 06:58:44;;;;;;;5.65;3.42;;;9.50;98.10;;;;;;5044359;28;20040;-81
2021/11/03 07:01:11;;;;;;;6.60;3.97;;;9.50;98.30;;;;;;5025997;28;20061;-81
2021/11/03 07:03:38;;;;;;;7.90;3.28;;;9.50;98.00;;;;;;5029844;28;20265;-81
2021/11/03 07:06:04;;;;;;;3.33;3.00;;;9.60;98.00;;;;;;5025256;28;20032;-81
2021/11/03 07:08:30;;;;;;;3.45;3.15;;;9.60;97.90;;;;;;5018362;28;20113;-81
2021/11/03 07:10:58;;;;;;;8.27;3.97;;;9.60;97.80;;;;;;5027886;28;20033;-81
2021/11/03 07:13:25;;;;;;;3.65;3.25;;;9.60;97.80;;;;;;5023679;28;20061;-82
2021/11/03 07:15:51;;;;;;;4.25;3.75;;;9.60;97.80;;;;;;5018927;28;20113;-79
2021/11/03 07:18:17;;;;;;;5.63;3.65;;;9.60;97.70;;;;;;5024257;28;20025;-81
2021/11/03 07:20:45;;;;;;;4.20;3.28;;;9.60;97.70;;;;;;5028210;28;20037;-81
2021/11/03 07:23:13;;;;;;;4.00;3.60;;;9.60;97.80;;;;;;5030871;28;20030;-81
2021/11/03 07:25:39;;;;;;;5.97;3.97;;;9.60;97.90;;;;;;5028726;28;20029;-80
2021/11/03 07:28:05;;;;;;;13.55;4.45;;;9.70;97.80;;;;;;5031309;28;20071;-81
2021/11/03 07:30:36;;;;;;;4.10;3.53;;;9.80;97.60;;;;;;5030456;28;20049;-81
2021/11/03 07:33:04;;;;;;;9.35;5.07;;;9.80;97.60;;;;;;5029668;28;20076;-81
2021/11/03 07:35:29;;;;;;;5.03;4.30;;;9.90;97.50;;;;;;5028948;28;20060;-81
2021/11/03 07:37:56;;;;;;;4.18;3.50;;;9.80;97.50;;;;;;5032692;28;20064;-81
2021/11/03 07:40:26;;;;;;;5.82;4.10;;;9.90;97.40;;;;;;5026227;28;20038;-81
2021/11/03 07:42:52;;;;;;;5.80;4.57;;;10.00;97.40;;;;;;5028012;28;20041;-81
2021/11/03 07:45:18;;;;;;;7.57;5.00;;;10.10;97.40;;;;;;5027706;28;20041;-81
2021/11/03 07:47:44;;;;;;;5.78;4.57;;;10.10;97.20;;;;;;5038821;28;20025;-81
2021/11/03 07:50:19;;;;;;;6.35;3.83;;;10.20;97.10;;;;;;5030862;28;20022;-81
2021/11/03 07:52:44;;;;;;;7.40;4.45;;;10.30;96.80;;;;;;5020758;28;20399;-81
2021/11/03 07:55:10;;;;;;;12.57;3.83;;;10.30;96.70;;;;;;5023837;28;20036;-81
2021/11/03 07:57:36;;;;;;;4.50;4.10;;;10.30;96.40;;;;;;5028267;28;20063;-81
2021/11/03 08:00:07;;;;;;;5.18;4.35;;;10.40;96.40;;;;;;5015448;28;20029;-81
2021/11/03 08:02:33;;;;;;;4.35;3.90;;;10.40;96.30;;;;;;5016509;28;20549;-81
2021/11/03 08:04:58;;;;;;;4.43;3.47;;;10.40;96.20;;;;;;5014474;28;20045;-80
2021/11/03 08:07:24;;;;;;;5.30;3.70;;;10.40;96.30;;;;;;5022229;28;20030;-81
2021/11/03 08:09:49;;;;;;;4.30;3.55;;;10.50;96.70;;;;;;5024061;28;20045;-81
2021/11/03 08:12:17;;;;;;;3.50;3.20;;;10.50;96.60;;;;;;5044903;28;20042;-81
2021/11/03 08:14:42;;;;;;;6.22;4.70;;;10.60;96.50;;;;;;5014769;28;20057;-82
2021/11/03 08:17:13;;;;;;;7.57;3.55;;;10.60;96.30;;;;;;5030308;28;20064;-81
2021/11/03 08:19:47;;;;;;;4.88;4.00;;;10.70;96.20;;;;;;5012906;28;20588;-81
2021/11/03 08:22:15;;;;;;;4.72;3.45;;;10.80;96.10;;;;;;5016124;28;20525;-80
2021/11/03 08:24:40;;;;;;;4.32;3.92;;;10.90;95.90;;;;;;5030038;28;20068;-81
2021/11/03 08:27:07;;;;;;;4.68;3.72;;;10.90;95.60;;;;;;5029298;28;20124;-81
2021/11/03 08:29:32;;;;;;;4.75;4.05;;;11.00;95.90;;;;;;5014156;28;20463;-81
2021/11/03 08:31:58;;;;;;;4.65;4.13;;;11.00;95.60;;;;;;5018594;28;20061;-80
2021/11/03 08:34:29;;;;;;;4.28;3.83;;;11.10;96.00;;;;;;5026128;28;20033;-80
2021/11/03 08:36:59;;;;;;;3.67;3.38;;;11.20;95.70;;;;;;5029460;28;20112;-78
2021/11/03 08:39:25;;;;;;;5.25;3.58;;;11.30;95.60;;;;;;5025251;28;20048;-78
2021/11/03 08:41:51;;;;;;;4.47;3.58;;;11.40;95.40;;;;;;5009024;28;20036;-78
2021/11/03 08:44:16;;;;;;;4.60;2.90;;;11.40;94.90;;;;;;5034584;28;20037;-78
2021/11/03 08:46:42;;;;;;;3.95;3.25;;;11.50;94.90;;;;;;5027354;28;20037;-78
2021/11/03 08:49:08;;;;;;;6.15;3.45;;;11.60;94.70;;;;;;5031199;28;20148;-78
2021/11/03 08:51:34;;;;;;;3.53;3.22;;;11.80;94.60;;;;;;5017898;28;20093;-78
2021/11/03 08:54:03;;;;;;;3.85;2.70;;;11.80;94.10;;;;;;5038638;28;20108;-78
2021/11/03 08:56:29;;;;;;;3.85;3.45;;;11.90;93.70;;;;;;5027440;28;20029;-78
2021/11/03 08:58:55;;;;;;;5.18;3.20;;;12.00;93.90;;;;;;5023832;28;20549;-77
2021/11/03 09:01:21;;;;;;;4.80;2.70;;;12.10;93.80;;;;;;5009424;28;20036;-78
2021/11/03 09:03:47;;;;;;;3.38;3.08;;;12.20;93.60;;;;;;5016774;28;20056;-78
2021/11/03 09:06:12;;;;;;;3.60;3.15;;;12.20;93.40;;;;;;5016723;28;20034;-78
2021/11/03 09:08:39;;;;;;;3.65;2.53;;;12.30;93.60;;;;;;5024321;28;20041;-78
2021/11/03 09:11:05;;;;;;;3.65;2.75;;;12.40;93.30;;;;;;5022533;28;20029;-78
2021/11/03 09:13:32;;;;;;;3.88;2.75;;;12.50;93.30;;;;;;5024214;28;20149;-79
2021/11/03 09:15:59;;;;;;;3.55;3.25;;;12.50;93.00;;;;;;5010261;28;20054;-80
2021/11/03 09:18:25;;;;;;;3.70;3.00;;;12.60;93.00;;;;;;5028217;28;20413;-79
2021/11/03 09:20:52;;;;;;;2.45;2.25;;;12.60;93.00;;;;;;5029333;28;20075;-79
2021/11/03 09:23:19;;;;;;;3.28;2.95;;;12.60;93.00;;;;;;5013997;28;20025;-79
2021/11/03 09:25:46;;;;;;;5.05;2.95;;;12.60;93.00;;;;;;5029037;28;20068;-79
2021/11/03 09:28:11;;;;;;;6.63;2.97;;;12.60;92.90;;;;;;5022949;28;20090;-79
2021/11/03 09:30:38;;;;;;;2.20;1.95;;;12.50;92.90;;;;;;5021938;28;20463;-78
2021/11/03 09:33:07;;;;;;;2.25;2.00;;;12.50;92.90;;;;;;5011139;28;20033;-79
2021/11/03 09:35:36;;;;;;;2.17;1.98;;;12.40;92.90;;;;;;5019850;28;20232;-79
2021/11/03 09:38:02;;;;;;;3.42;2.78;;;12.40;93.30;;;;;;5010362;28;20045;-79
2021/11/03 09:40:36;;;;;;;2.72;2.47;;;12.50;92.70;;;;;;5017339;28;20033;-78
2021/11/03 09:43:12;;;;;;;2.17;1.90;;;12.50;93.00;;;;;;5016029;28;20029;-79
2021/11/03 09:45:38;;;;;;;2.47;2.28;;;12.60;92.80;;;;;;5027913;28;20048;-79
2021/11/03 09:48:16;;;;;;;3.17;2.92;;;12.70;92.50;;;;;;5012283;28;20034;-79
2021/11/03 09:50:47;;;;;;;4.93;2.28;;;12.70;92.20;;;;;;5020281;28;20113;-79
2021/11/03 09:53:37;;;;;;;2.42;2.10;;;12.70;92.20;;;;;;5010271;28;20037;-79
2021/11/03 09:56:09;;;;;;;2.47;2.13;;;12.80;92.20;;;;;;5012281;28;20061;-78
2021/11/03 09:58:43;;;;;;;3.70;2.47;;;12.80;92.20;;;;;;5016510;28;20071;-78
2021/11/03 10:01:41;;;;;;;3.97;2.05;;;12.90;92.10;;;;;;5027393;28;20033;-78
2021/11/03 10:04:29;;;;;;;2.25;2.05;;;12.90;91.60;;;;;;5022902;28;20029;-79
2021/11/03 10:07:32;;;;;;;5.72;2.10;;;12.90;91.80;;;;;;5022322;28;20037;-78
2021/11/03 10:10:08;;;;;;;2.10;1.88;;;13.00;91.90;;;;;;5017941;28;20376;-79
2021/11/03 10:12:33;;;;;;;3.35;2.20;;;13.00;91.80;;;;;;5027674;28;20708;-79
2021/11/03 10:14:59;;;;;;;3.67;2.15;;;12.90;91.40;;;;;;5021115;28;20541;-79
2021/11/03 10:17:28;;;;;;;2.05;1.90;;;12.90;91.60;;;;;;5009675;28;20238;-79
2021/11/03 10:19:54;;;;;;;2.28;1.80;;;12.90;91.10;;;;;;5039572;28;20844;-78
2021/11/03 10:22:30;;;;;;;1.90;1.70;;;12.90;91.40;;;;;;5028613;28;20037;-81
2021/11/03 10:25:27;;;;;;;2.03;1.80;;;12.90;91.70;;;;;;5042321;28;20049;-81
2021/11/03 10:27:59;;;;;;;7.30;1.70;;;12.90;91.60;;;;;;5024544;28;20034;-77
2021/11/03 10:30:34;;;;;;;2.97;1.38;;;12.90;91.40;;;;;;5028687;28;20036;-77
2021/11/03 10:33:23;;;;;;;3.30;1.65;;;12.90;91.30;;;;;;5027929;28;20033;-78
2021/11/03 10:36:15;;;;;;;1.40;1.30;;;13.00;91.10;;;;;;5014166;28;20045;-81
2021/11/03 10:38:51;;;;;;;1.67;1.58;;;13.00;91.20;;;;;;5028467;28;20038;-78
2021/11/03 10:41:22;;;;;;;1.65;1.30;;;12.90;91.40;;;;;;5026261;28;20048;-80
2021/11/03 10:44:17;;;;;;;1.30;1.15;;;12.90;91.40;;;;;;5026284;28;20049;-83
2021/11/03 10:46:53;;;;;;;1.35;0.93;;;12.90;91.30;;;;;;5022453;28;20048;-79
2021/11/03 10:49:36;;;;;;;1.60;1.30;;;13.00;91.40;;;;;;5011733;28;20033;-78
2021/11/03 10:52:17;;;;;;;1.35;1.23;;;13.00;91.10;;;;;;5043314;28;20033;-81
2021/11/03 10:54:48;;;;;;;1.15;1.05;;;13.10;91.00;;;;;;5028247;28;20057;-80
2021/11/03 10:57:23;;;;;;;1.77;1.13;;;13.20;91.00;;;;;;5019141;28;20038;-81
2021/11/03 10:59:59;;;;;;;1.85;0.98;;;13.40;90.40;;;;;;5026056;28;20782;-78
2021/11/03 11:02:28;;;;;;;1.00;0.70;;;13.40;90.00;;;;;;5026020;28;20455;-78
2021/11/03 11:04:56;;;;;;;1.80;1.10;;;13.50;89.90;;;;;;5021376;28;20041;-81
2021/11/03 11:07:30;;;;;;;1.42;1.08;;;13.60;89.80;;;;;;5021001;28;20095;-80
2021/11/03 11:10:20;;;;;;;0.70;0.63;;;13.60;89.50;;;;;;5017829;28;20026;-78
2021/11/03 11:12:48;;;;;;;1.20;0.90;;;13.70;88.00;;;;;;5023968;28;20029;-80
2021/11/03 11:15:14;;;;;;;1.48;0.82;;;13.70;88.80;;;;;;5016138;28;20397;-79
2021/11/03 11:18:03;;;;;;;1.08;0.98;;;13.70;89.00;;;;;;5023886;28;20036;-81
2021/11/03 11:20:34;;;;;;;1.00;0.90;;;13.70;89.80;;;;;;5008096;28;20104;-79
2021/11/03 11:23:29;;;;;;;1.25;0.90;;;13.70;89.60;;;;;;5029467;28;20060;-80
2021/11/03 11:26:16;;;;;;;0.75;0.65;;;13.70;90.00;;;;;;5008220;28;20038;-79
2021/11/03 11:29:08;;;;;;;1.35;1.10;;;13.80;90.00;;;;;;5016104;28;20116;-81
2021/11/03 11:32:18;;;;;;;2.00;1.02;;;13.80;89.70;;;;;;5017818;28;20034;-79
2021/11/03 11:35:05;;;;;;;1.30;1.10;;;13.90;89.10;;;;;;5009376;28;20045;-80
2021/11/03 11:37:34;;;;;;;1.42;1.15;;;13.90;88.80;;;;;;5021287;28;20163;-79
2021/11/03 11:40:37;;;;;;;1.33;1.00;;;13.90;89.20;;;;;;5028838;28;20030;-78
2021/11/03 11:43:22;;;;;;;0.88;0.80;;;13.90;89.40;;;;;;5031649;28;20090;-78
2021/11/03 11:45:48;;;;;;;1.83;1.13;;;13.90;90.00;;;;;;5036245;28;20507;-78
2021/11/03 11:48:32;;;;;;;1.45;0.88;;;13.90;88.50;;;;;;5034673;28;20083;-80
2021/11/03 11:51:11;;;;;;;1.02;0.93;;;14.00;90.20;;;;;;5011914;28;20510;-78
2021/11/03 11:54:02;;;;;;;2.97;0.80;;;14.10;89.20;;;;;;5022413;28;20425;-78
2021/11/03 11:56:38;;;;;;;1.30;0.73;;;14.20;88.50;;;;;;5029953;28;20033;-78
2021/11/03 11:59:20;;;;;;;1.15;1.00;;;14.30;86.70;;;;;;5028618;28;20029;-79
2021/11/03 12:01:48;;;;;;;1.23;0.82;;;14.50;85.40;;;;;;5030180;28;20036;-79
2021/11/03 12:04:29;;;;;;;3.30;1.20;;;14.60;86.30;;;;;;5030506;28;20026;-79
2021/11/03 12:06:54;;;;;;;1.38;1.02;;;14.70;86.00;;;;;;5026313;28;20038;-78
2021/11/03 12:09:32;;;;;;;1.30;0.70;;;14.80;86.30;;;;;;5037170;28;20035;-78
2021/11/03 12:12:00;;;;;;;1.15;0.70;;;15.00;84.90;;;;;;5029010;28;20025;-78
2021/11/03 12:14:34;;;;;;;1.33;0.85;;;15.00;83.50;;;;;;5029317;28;20676;-81
2021/11/03 12:17:03;;;;;;;0.90;0.73;;;15.00;84.20;;;;;;5025779;28;20057;-81
2021/11/03 12:19:42;;;;;;;1.73;0.90;;;15.10;85.20;;;;;;5017588;28;20482;-80
2021/11/03 12:22:28;;;;;;;1.08;0.70;;;15.10;84.90;;;;;;5021703;28;20482;-80
2021/11/03 12:24:56;;;;;;;1.00;0.90;;;15.10;85.20;;;;;;5016041;28;20038;-79
2021/11/03 12:27:24;;;;;;;1.15;0.85;;;15.10;84.70;;;;;;5024984;28;20041;-78
2021/11/03 12:30:08;;;;;;;1.00;0.70;;;15.10;84.70;;;;;;5046259;28;20021;-79
2021/11/03 12:32:57;;;;;;;1.55;0.70;;;15.00;84.00;;;;;;5011777;28;20029;-78
2021/11/03 12:35:23;;;;;;;0.65;0.50;;;15.00;84.90;;;;;;5014402;28;20021;-78
2021/11/03 12:37:58;;;;;;;1.10;0.60;;;14.90;83.50;;;;;;5029050;28;20489;-79
2021/11/03 12:40:36;;;;;;;0.75;0.50;;;14.90;82.90;;;;;;5014142;28;20040;-79
2021/11/03 12:43:30;;;;;;;0.75;0.50;;;14.90;83.00;;;;;;5042500;28;20068;-79
2021/11/03 12:46:07;;;;;;;0.60;0.40;;;14.90;82.20;;;;;;5010340;28;20075;-79
2021/11/03 12:48:36;;;;;;;1.17;0.50;;;14.80;82.80;;;;;;5023947;28;20108;-79
2021/11/03 12:51:11;;;;;;;0.80;0.50;;;14.80;82.90;;;;;;5030888;28;20053;-78
2021/11/03 12:53:47;;;;;;;0.73;0.45;;;14.70;83.80;;;;;;5020678;28;20053;-79
2021/11/03 12:56:15;;;;;;;0.60;0.60;;;14.70;85.30;;;;;;5028234;28;20060;-78
2021/11/03 12:58:57;;;;;;;3.85;0.90;;;14.70;83.20;;;;;;5028561;28;20024;-79
2021/11/03 13:01:26;;;;;;;0.65;0.60;;;14.70;84.40;;;;;;5029384;28;20025;-78
2021/11/03 13:04:11;;;;;;;0.82;0.60;;;14.70;85.00;;;;;;5027871;28;20440;-78
2021/11/03 13:06:44;;;;;;;0.70;0.50;;;14.70;84.40;;;;;;5015454;28;20375;-78